Cary, NC (27513)

1:56 AM EDT on July 31, 2015 (GMT -0400)
Preston Forest | | Change Station
CLOSE
Current Station
Personal Weather Station
Location: Cary, NC
Elevation: 346 ft
Nearby Weather Stations

Elev 346 ft 35.79 °N, 78.84 °W | Updated 16 minutes ago

Mostly Cloudy
Mostly Cloudy
79.7 °F
Feels Like 83 °F
N
-
Wind Variable Wind from North

Today
High -- | Low -- °F
--% Chance of Precip.
Yesterday
High -- | Low -- °F
Precip. -- in
6:21 AM 8:20 PM
Full, 100% visible
Pressure 29.90 in
Visibility 10.0 miles
Clouds Few 5500 ft
Mostly Cloudy 8000 ft
Mostly Cloudy 9500 ft
Mostly Cloudy 25000 ft
Heat Index 83 °F
Dew Point 72 °F
Humidity 78%
Rainfall -999.00 in
Snow Depth Not available.
UV 0 out of 12
Pollen 3.90 out of 12
Air Quality Not available.
Flu Activity Not available.
METAR KRDU 310551Z VRB04KT 10SM FEW055 BKN080 BKN095 BKN250 27/21 A2992 RMK AO2 RAB04E19 SLP125 P0000 60000 T02670211 10300 20256 58000 $

More Conditions Fewer Conditions

Pressure 29.90 in
Visibility 10.0 miles
Clouds Few 5500 ft
Mostly Cloudy 8000 ft
Mostly Cloudy 9500 ft
Mostly Cloudy 25000 ft
Heat Index 83 °F
Dew Point 72 °F
Humidity 78%
Rainfall -999.00 in
Snow Depth Not available.
UV 0 out of 12
Pollen 3.90 out of 12
Air Quality Not available.
Flu Activity Not available.
METAR KRDU 310551Z VRB04KT 10SM FEW055 BKN080 BKN095 BKN250 27/21 A2992 RMK AO2 RAB04E19 SLP125 P0000 60000 T02670211 10300 20256 58000 $

More Conditions Fewer Conditions

10-Day Weather Forecast

×

Almanac

Astronomy

Jul. 31, 2015 Rise Set
Actual Time
Civil Twilight
Nautical Twilight
Astronomical Twilight
Moon
Length of Visible Light
Length of Day
Tomorrow will be .
, % of the Moon is Illuminated

Today's Extremes

State Highs State Lows

Community

WunderPhotos

Upload Photos

1,842,632 photos uploaded!

WunderBlogs® & News

Nearby

Air Quality

  Air Quality AQ Index Pollutant
Not available.

Snow Depth

Station Depth Elevation

Earthquake Activity

City Distance Mag. Time & Date
Minimum magnitude displayed is 2.5.

Coastal Water Temperatures

Place Temperature

Stations

Nearby Weather Stations

Station Location Temp. Windchill Dew Point Humidity Wind Precip. Elev Updated Type